BKPR/PRN METAR and TAF weather

Enter ICAO airport designator
Station Type Date Time Source
BKPR METAR 2022/11/30 17:00 UTC NOAA

BKPR 301700Z 01013KT 9999 BKN035 04/02 Q1016 NOSIG


Station Type Date Time Source
BKPR Decoded METAR 2022/11/30 17:00 UTC NOAA

Station name not available
Nov 30, 2022 - 12:00 PM EST / 2022.11.30 1700 UTC
Wind: from the N (010 degrees) at 15 MPH (13 KT):0
Visibility: greater than 7 mile(s):0
Sky conditions: mostly cloudy
Temperature: 39 F (4 C)
Dew Point: 35 F (2 C)
Relative Humidity: 86%
Pressure (altimeter): 30.00 in. Hg (1016 hPa)
ob: BKPR 301700Z 01013KT 9999 BKN035 04/02 Q1016 NOSIG
cycle: 17

Station Type Date Time Source
BKPR TAF 2022/11/30 12:00 UTC NOAA

TAF BKPR 301130Z 3012/0112 01012KT 9999 FEW014 BKN030
TEMPO 3012/3017 5000 -RA BR
TEMPO 0100/0112 3000 RA BKN015

Example: see airport list